Latest Weather Observations for Shay Gap

IDW60801

Issued at 2:02 am WST Wednesday 10 February 2016 (issued every 30 minutes, with the page automatically refreshed every 10 minutes)

About weather observations | Map of weather stations | Latest weather observations for WA | Other Formats
Station Details ID: 504045 Name: SHAY GAP Lat: -20.43 Lon: 120.13 Height: 173.83 m
Data from the previous 72 hours. | See also: Recent months for locations in Western Australia
Date/Time
WST
Temp
°C
App
Temp
°C
Dew
Point
Rel
Hum
%
Delta-T
°C
Wind Press
QNH
hPa
Press
MSL
hPa
Rain
since 9 am
mm
Dir
 
Spd
km/h
Gust
km/h
Spd
kts
Gust
kts
10/02:00am 31.5 29.5 12.8 32 11.2 SW 15 17 8 9 1008.1 1006.6 0.0
10/01:30am 32.1 29.7 12.8 30 11.6 WSW 17 20 9 11 1008.1 1006.6 0.0
10/01:00am 32.8 29.5 12.9 29 12.0 WSW 22 30 12 16 1008.1 1006.6 0.0
10/12:30am 31.3 29.0 13.1 33 10.9 SW 17 22 9 12 1008.9 1007.5 0.0
10/12:00am 32.4 30.9 13.1 31 11.7 SW 13 19 7 10 1009.3 1007.9 0.0
 
Date/Time
WST
Temp
°C
App
Temp
°C
Dew
Point
Rel
Hum
%
Delta-T
°C
Wind Press
QNH
hPa
Press
MSL
hPa
Rain
since 9 am
mm
Dir
 
Spd
km/h
Gust
km/h
Spd
kts
Gust
kts
09/11:30pm 32.8 30.1 12.9 29 12.0 WSW 19 24 10 13 1009.6 1008.2 0.0
09/11:00pm 31.7 30.6 13.0 32 11.3 SW 11 15 6 8 1009.8 1008.4 0.0
09/10:50pm 31.4 31.3 13.2 33 11.0 WSW 6 11 3 6 1009.9 1008.5 0.0
09/10:46pm 31.8 31.9 12.6 31 11.5 WSW 4 11 2 6 1009.9 1008.5 0.0
09/10:30pm 32.1 31.6 12.8 30 11.6 WSW 7 13 4 7 1009.9 1008.5 0.0
09/10:00pm 32.4 30.0 12.6 30 11.9 WSW 17 20 9 11 1009.9 1008.5 0.0
09/09:30pm 32.7 31.7 13.4 31 11.7 W 11 11 6 6 1009.7 1008.3 0.0
09/09:00pm 32.8 31.8 13.4 30 11.8 W 11 13 6 7 1009.5 1008.1 0.0
09/08:30pm 33.6 32.3 12.6 28 12.6 W 11 15 6 8 1009.2 1007.8 0.0
09/08:00pm 34.5 33.1 12.2 26 13.4 WNW 11 15 6 8 1008.9 1007.5 0.0
09/07:30pm 36.1 33.8 11.7 23 14.6 NW 15 19 8 10 1008.7 1007.2 0.0
09/07:00pm 37.3 34.3 12.0 22 15.3 NNW 19 22 10 12 1008.4 1006.9 0.0
09/06:30pm 38.7 35.8 10.9 19 16.7 NNW 17 28 9 15 1008.0 1006.5 0.0
09/06:00pm 42.2 39.1 5.6 11 20.7 SSE 11 24 6 13 1007.9 1006.4 0.0
09/05:30pm 42.4 36.6 4.4 10 21.1 ESE 24 37 13 20 1007.4 1005.9 0.0
09/05:00pm 42.6 36.5 4.6 10 21.2 SE 26 37 14 20 1007.2 1005.7 0.0
09/04:30pm 43.4 37.8 5.2 10 21.5 SE 24 39 13 21 1006.8 1005.3 0.0
09/04:00pm 43.9 39.3 5.5 10 21.8 SE 19 26 10 14 1007.1 1005.6 0.0
09/03:30pm 44.1 38.9 5.7 10 21.8 ESE 22 35 12 19 1007.2 1005.7 0.0
09/03:00pm 43.0 38.5 6.2 11 21.0 SSE 19 28 10 15 1007.3 1005.8 0.0
09/02:30pm 42.9 37.8 6.2 11 20.9 ESE 22 33 12 18 1007.7 1006.2 0.0
09/02:00pm 43.9 38.6 6.9 11 21.4 ENE 24 37 13 20 1008.0 1006.5 0.0
09/01:47pm 43.3 37.3 5.1 10 21.5 ESE 26 39 14 21 1008.2 1006.7 0.0
09/01:31pm 43.1 38.1 6.3 11 21.0 E 22 44 12 24 1008.4 1006.9 0.0
09/01:30pm 43.5 38.9 6.6 11 21.2 E 20 44 11 24 1008.2 1006.7 0.0
09/01:06pm 43.5 38.2 6.6 11 21.2 E 24 41 13 22 1008.6 1007.1 0.0
09/01:00pm 42.3 37.5 5.7 11 20.7 ENE 20 33 11 18 1008.7 1007.2 0.0
09/12:45pm 43.1 36.6 4.9 10 21.4 E 28 46 15 25 1008.7 1007.2 0.0
09/12:30pm 42.5 35.9 5.9 11 20.7 ESE 30 41 16 22 1008.9 1007.5 0.0
09/12:04pm 42.9 38.0 8.6 13 20.2 ESE 24 50 13 27 1009.2 1007.8 0.0
09/12:00pm 41.5 36.7 7.5 13 19.6 ESE 22 43 12 23 1009.4 1008.0 0.0
09/11:32am 42.9 37.0 7.4 12 20.6 E 28 48 15 26 1009.7 1008.3 0.0
09/11:30am 43.0 37.9 7.5 12 20.6 E 24 39 13 21 1009.7 1008.3 0.0
09/11:00am 41.5 36.2 8.6 14 19.3 E 26 44 14 24 1010.2 1008.8 0.0
09/10:30am 41.4 37.5 9.6 15 18.9 ENE 20 39 11 21 1010.4 1009.0 0.0
09/10:00am 40.2 37.1 12.1 19 17.2 ENE 20 30 11 16 1010.8 1009.3 0.0
09/09:30am 39.4 36.5 13.0 21 16.3 E 20 28 11 15 1010.9 1009.4 0.0
09/09:00am 37.9 34.5 12.5 22 15.5 ESE 22 28 12 15 1011.0 1009.5 0.0
09/08:57am 37.7 34.2 12.3 22 15.5 ESE 22 28 12 15 1011.0 1009.5 0.0
09/08:30am 36.2 33.2 12.4 24 14.4 SE 20 28 11 15 1010.8 1009.3 0.0
09/08:00am 34.9 30.6 12.0 25 13.7 SE 26 30 14 16 1010.6 1009.2 0.0
09/07:30am 33.8 29.5 12.2 27 12.9 SE 26 35 14 19 1010.3 1008.9 0.0
09/07:24am 33.7 30.2 12.1 27 12.9 SE 22 30 12 16 1010.3 1008.9 0.0
09/07:00am 32.2 29.2 12.4 30 11.8 SE 20 26 11 14 1010.3 1008.9 0.0
09/06:50am 31.7 28.9 12.5 31 11.5 SE 19 26 10 14 1010.2 1008.8 0.0
09/06:38am 31.3 28.5 12.6 31 11.2 SE 19 22 10 12 1010.1 1008.7 0.0
09/06:30am 30.9 28.2 12.8 33 10.8 SE 19 22 10 12 1010.1 1008.7 0.0
09/06:16am 29.9 28.1 13.2 36 10.0 SE 15 20 8 11 1010.0 1008.6 0.0
09/06:11am 29.5 27.7 13.3 37 9.7 SE 15 17 8 9 1009.9 1008.5 0.0
09/06:00am 29.3 27.3 12.7 36 9.9 SE 15 17 8 9 1009.7 1008.3 0.0
09/05:30am 29.5 27.4 13.7 38 9.5 SSE 17 17 9 9 1009.3 1007.9 0.0
09/05:00am 29.5 27.4 13.7 38 9.5 SSE 17 19 9 10 1009.0 1007.6 0.0
09/04:30am 29.1 27.3 13.3 37 9.4 S 15 15 8 8 1008.8 1007.4 0.0
09/04:00am 29.7 27.8 13.0 35 10.0 S 15 17 8 9 1008.7 1007.2 0.0
09/03:30am 30.0 28.7 12.4 34 10.4 S 11 13 6 7 1008.6 1007.1 0.0
09/03:00am 31.5 29.4 11.3 29 11.8 SW 13 19 7 10 1008.7 1007.2 0.0
09/02:30am 32.3 30.5 12.0 29 12.0 SW 13 19 7 10 1008.5 1007.0 0.0
09/02:00am 31.1 30.6 12.5 32 11.1 S 7 11 4 6 1008.8 1007.4 0.0
09/01:30am 32.2 30.7 11.9 29 12.0 W 11 15 6 8 1008.9 1007.5 0.0
09/01:00am 33.4 31.7 12.4 28 12.6 WSW 13 20 7 11 1009.2 1007.8 0.0
09/12:30am 33.0 30.9 13.6 31 11.8 SW 17 22 9 12 1009.7 1008.3 0.0
09/12:00am 32.8 30.4 14.4 33 11.4 SW 20 26 11 14 1009.9 1008.5 0.0
 
Date/Time
WST
Temp
°C
App
Temp
°C
Dew
Point
Rel
Hum
%
Delta-T
°C
Wind Press
QNH
hPa
Press
MSL
hPa
Rain
since 9 am
mm
Dir
 
Spd
km/h
Gust
km/h
Spd
kts
Gust
kts
08/11:30pm 33.5 31.3 15.0 32 11.5 WSW 20 28 11 15 1010.0 1008.6 0.0
08/11:00pm 33.6 32.8 15.1 33 11.6 SW 13 15 7 8 1011.1 1009.6 0.0
08/10:30pm 33.8 32.5 14.8 32 11.8 WSW 15 19 8 10 1010.5 1009.1 0.0
08/10:00pm 33.3 33.0 14.4 32 11.7 W 9 11 5 6 1010.4 1009.0 0.0
08/09:30pm 33.3 32.2 14.4 32 11.7 W 13 17 7 9 1010.2 1008.8 0.0
08/09:00pm 33.2 31.7 14.3 32 11.7 W 15 17 8 9 1009.7 1008.3 0.0
08/08:30pm 33.3 32.6 15.3 34 11.3 WNW 13 15 7 8 1009.4 1008.0 0.0
08/08:00pm 34.0 33.2 15.0 32 11.9 WNW 13 15 7 8 1008.9 1007.5 0.0
08/07:30pm 35.5 33.4 13.6 26 13.5 WNW 17 20 9 11 1008.5 1007.0 0.0
08/07:00pm 36.5 33.7 11.3 22 15.1 NW 17 24 9 13 1008.2 1006.7 0.0
08/06:30pm 37.6 34.5 12.3 22 15.4 NNW 20 28 11 15 1008.1 1006.6 0.0
08/06:00pm 39.4 36.4 10.7 18 17.2 NNW 17 20 9 11 1007.6 1006.1 0.0
08/05:30pm 41.0 36.7 3.4 10 20.4 ESE 15 24 8 13 1007.1 1005.6 0.0
08/05:00pm 42.2 36.1 2.8 9 21.4 ESE 24 35 13 19 1006.9 1005.4 0.0
08/04:30pm 42.6 37.9 3.1 9 21.5 ESE 17 26 9 14 1006.7 1005.2 0.0
08/04:00pm 42.2 37.4 2.8 9 21.4 ESE 17 30 9 16 1006.9 1005.4 0.0
08/03:30pm 42.3 36.6 2.8 9 21.4 SE 22 35 12 19 1007.1 1005.6 0.0
08/03:00pm 42.4 37.0 4.4 10 21.1 ESE 22 37 12 20 1007.2 1005.7 0.0
08/02:30pm 42.8 37.8 4.7 10 21.2 E 20 28 11 15 1007.6 1006.1 0.0
08/02:00pm 42.5 36.0 4.5 10 21.1 ESE 28 43 15 23 1007.8 1006.3 0.0
08/01:30pm 43.4 37.8 5.2 10 21.5 ENE 24 41 13 22 1008.2 1006.7 0.0
08/01:00pm 41.9 35.6 4.0 10 20.9 ESE 26 52 14 28 1008.6 1007.1 0.0
08/12:58pm 42.3 35.7 4.3 10 21.0 ESE 28 52 15 28 1008.5 1007.0 0.0
08/12:30pm 42.1 36.3 4.2 10 20.9 ENE 24 44 13 24 1008.7 1007.2 0.0
08/12:00pm 41.6 34.8 5.2 11 20.4 ENE 30 46 16 25 1009.3 1007.9 0.0
08/11:30am 41.7 35.6 6.5 12 20.0 E 28 48 15 26 1009.5 1008.1 0.0
08/11:29am 41.9 35.9 5.4 11 20.5 E 26 48 14 26 1009.3 1007.9 0.0
08/11:00am 40.5 34.4 6.7 13 19.2 E 28 41 15 22 1009.8 1008.4 0.0
08/10:30am 40.2 35.8 10.5 17 17.8 ESE 24 41 13 22 1010.0 1008.6 0.0
08/10:00am 38.9 34.7 11.1 19 16.7 ESE 24 32 13 17 1010.5 1009.1 0.0
08/09:30am 38.0 33.6 10.4 19 16.4 SE 24 30 13 16 1010.5 1009.1 0.0
08/09:00am 37.1 32.5 9.6 19 16.1 SE 24 30 13 16 1010.6 1009.2 0.0
08/08:30am 34.9 31.3 12.0 25 13.7 SSE 22 28 12 15 1010.8 1009.3 0.0
08/08:00am 33.8 31.0 13.3 29 12.5 SSE 20 26 11 14 1010.6 1009.2 0.0
08/07:30am 31.7 31.6 17.9 43 8.9 SSE 15 17 8 9 1010.6 1009.2 0.0
08/07:00am 29.9 30.5 18.7 51 7.3 SSE 13 19 7 10 1010.5 1009.1 0.0
08/06:30am 26.9 29.0 19.3 63 4.9 SSE 7 11 4 6 1010.4 1009.0 0.0
08/06:00am 25.1 25.4 17.8 64 4.6 S 13 13 7 7 1010.2 1008.8 0.0
08/05:30am 26.0 25.8 15.7 53 6.3 S 11 13 6 7 1010.1 1008.7 0.0
08/05:00am 26.9 27.8 16.5 53 6.5 SSW 7 11 4 6 1009.9 1008.5 0.0
08/04:30am 26.3 27.6 17.6 58 5.5 SSW 7 9 4 5 1009.8 1008.4 0.0
08/04:00am 26.3 27.1 17.4 58 5.6 SSW 9 11 5 6 1009.7 1008.3 0.0
08/03:30am 26.7 27.4 18.0 59 5.5 WSW 11 11 6 6 1009.7 1008.3 0.0
08/03:00am 27.6 29.0 17.7 54 6.3 W 7 9 4 5 1009.8 1008.4 0.0
08/02:30am 28.1 28.9 17.3 52 6.8 WSW 9 13 5 7 1010.0 1008.6 0.0
08/02:00am 28.4 27.6 16.0 47 7.7 WSW 15 17 8 9 1010.1 1008.7 0.0
08/01:30am 28.4 26.8 13.9 41 8.7 WSW 15 17 8 9 1010.4 1009.0 0.0
08/01:00am 27.9 27.6 15.5 46 7.6 SW 11 13 6 7 1010.8 1009.3 0.0
08/12:30am 27.8 29.7 19.8 61 5.2 W 9 9 5 5 1011.0 1009.5 0.0
08/12:00am 28.0 30.3 19.8 61 5.4 W 7 7 4 4 1011.2 1009.7 0.0
 
Date/Time
WST
Temp
°C
App
Temp
°C
Dew
Point
Rel
Hum
%
Delta-T
°C
Wind Press
QNH
hPa
Press
MSL
hPa
Rain
since 9 am
mm
Dir
 
Spd
km/h
Gust
km/h
Spd
kts
Gust
kts
07/11:30pm 28.3 30.6 20.6 63 5.1 W 9 11 5 6 1011.4 1009.9 0.0
07/11:00pm 29.0 31.3 20.7 61 5.5 W 9 11 5 6 1011.5 1010.0 0.0
07/10:30pm 29.4 31.3 19.7 56 6.4 WNW 9 13 5 7 1011.5 1010.0 0.0
07/10:00pm 29.7 31.0 18.5 51 7.3 WNW 9 11 5 6 1011.3 1009.8 0.0
07/09:30pm 30.2 31.6 18.6 49 7.5 NW 9 13 5 7 1010.9 1009.4 0.0
07/09:00pm 30.6 32.5 19.0 50 7.6 NNW 7 9 4 5 1010.4 1009.0 0.0
07/08:30pm 31.3 32.8 19.0 48 8.1 NNW 9 13 5 7 1010.0 1008.6 0.0
07/08:00pm 32.1 33.2 17.9 42 9.2 NNW 9 13 5 7 1009.7 1008.3 0.0
07/07:30pm 33.1 33.0 16.0 35 10.8 NNW 11 15 6 8 1009.1 1007.7 0.0
07/07:00pm 34.4 32.9 14.3 30 12.5 N 15 20 8 11 1008.6 1007.1 0.0
07/06:30pm 35.7 33.5 14.9 29 13.0 NNW 20 26 11 14 1008.1 1006.6 0.0
07/06:00pm 37.0 33.8 14.3 26 14.2 N 24 32 13 17 1007.7 1006.2 0.0
07/05:30pm 38.1 34.4 14.0 24 15.0 NNW 26 37 14 20 1007.4 1005.9 0.0
07/05:00pm 38.8 34.3 12.5 21 16.2 NNW 28 39 15 21 1006.9 1005.4 0.0
07/04:30pm 39.4 35.9 12.3 20 16.6 N 22 35 12 19 1006.7 1005.2 0.0
07/04:00pm 39.5 35.7 12.4 20 16.7 N 24 32 13 17 1006.6 1005.1 0.0
07/03:30pm 40.2 38.1 13.7 21 16.6 NNW 17 24 9 13 1006.5 1005.0 0.0
07/03:00pm 41.0 37.6 9.2 15 18.8 ENE 17 30 9 16 1006.8 1005.3 0.0
07/02:30pm 40.8 37.4 9.1 15 18.7 ENE 17 30 9 16 1007.0 1005.5 0.0
07/02:00pm 42.0 38.8 10.0 15 19.2 ESE 17 26 9 14 1007.3 1005.8 0.0
07/01:30pm 41.3 38.4 9.5 15 18.9 ENE 15 24 8 13 1007.5 1006.0 0.0
07/01:00pm 40.6 37.5 8.9 15 18.6 ENE 15 26 8 14 1007.8 1006.3 0.0
07/12:30pm 41.0 37.2 9.2 15 18.8 E 19 28 10 15 1008.2 1006.7 0.0
07/12:00pm 39.8 37.5 11.8 19 17.1 E 15 26 8 14 1008.6 1007.1 0.0
07/11:30am 38.8 36.3 11.0 19 16.7 ESE 15 24 8 13 1008.9 1007.5 0.0
07/11:00am 39.0 35.6 10.4 18 17.1 ESE 19 24 10 13 1009.4 1008.0 0.0
07/10:30am 37.8 33.9 9.4 18 16.6 E 20 28 11 15 1009.6 1008.2 0.0
07/10:00am 37.4 32.4 8.2 17 16.7 ESE 24 32 13 17 1009.6 1008.2 0.0
07/09:30am 36.5 30.8 6.6 16 16.6 ESE 26 35 14 19 1009.7 1008.3 0.0
07/09:00am 35.4 29.7 6.6 17 16.0 SE 26 33 14 18 1009.7 1008.3 0.0
07/08:30am 34.2 28.7 5.7 17 15.5 SE 24 32 13 17 1009.4 1008.0 0.0
07/08:00am 33.2 28.7 8.6 22 13.9 SE 22 32 12 17 1009.2 1007.8 0.0
07/07:30am 31.2 29.0 14.4 36 10.3 SSE 19 26 10 14 1009.1 1007.7 0.0
07/07:00am 28.4 30.5 20.2 61 5.4 SSE 9 11 5 6 1009.1 1007.7 0.0
07/06:30am 25.6 28.8 21.7 79 2.6 SW 7 9 4 5 1009.0 1007.6 0.0
07/06:00am 24.3 28.4 20.8 81 2.3 CALM 0 0 0 0 1008.9 1007.5 0.0
07/05:30am 24.6 27.6 20.9 80 2.4 SW 6 7 3 4 1008.9 1007.5 0.0
07/05:00am 25.1 28.0 21.0 78 2.7 SW 7 11 4 6 1008.6 1007.1 0.0
07/04:30am 25.2 28.0 20.9 77 2.8 WSW 7 9 4 5 1008.5 1007.0 0.0
07/04:00am 25.0 27.9 20.7 77 2.8 WSW 6 7 3 4 1008.3 1006.8 0.0
07/03:30am 25.5 27.0 21.2 77 2.9 WSW 15 15 8 8 1008.0 1006.5 0.0
07/03:00am 25.5 27.7 20.5 74 3.3 WSW 9 13 5 7 1008.2 1006.7 0.0
07/02:30am 25.8 27.4 20.8 74 3.3 W 13 13 7 7 1008.2 1006.7 0.0

Other Formats:

Comma delimited format used in spreadsheet applications
http://www.bom.gov.au/fwo/IDW60801/IDW60801.99311.axf

JavaScript Object Notation format (JSON) in row-major order
http://www.bom.gov.au/fwo/IDW60801/IDW60801.99311.json